createdAt,value
2023-05-19T00:01:28.229Z,101289.22
2023-05-19T00:06:31.783Z,101282.25
2023-05-19T00:11:36.152Z,101278.78
2023-05-19T00:16:38.853Z,101279.63
2023-05-19T00:21:40.308Z,101271.91
2023-05-19T00:26:42.450Z,101273.63
2023-05-19T00:31:43.562Z,101268.44
2023-05-19T00:36:44.416Z,101266.81
2023-05-19T00:41:49.251Z,101272.97
2023-05-19T00:46:50.096Z,101267.81
2023-05-19T00:51:50.929Z,101264.50
2023-05-19T00:56:52.960Z,101267.16
2023-05-19T01:01:54.214Z,101268.94
2023-05-19T01:06:55.196Z,101266.44
2023-05-19T01:11:57.300Z,101259.50
2023-05-19T01:17:05.654Z,101261.28
2023-05-19T01:22:29.315Z,101254.41
2023-05-19T01:28:11.706Z,101255.28
2023-05-19T01:33:16.278Z,101262.22
2023-05-19T01:38:18.919Z,101264.88
2023-05-19T01:43:22.269Z,101270.94
2023-05-19T01:48:24.541Z,101278.78
2023-05-19T01:53:25.490Z,101272.72
2023-05-19T01:58:35.375Z,101268.38
2023-05-19T02:03:49.057Z,101268.38
2023-05-19T02:08:59.146Z,101262.31
2023-05-19T02:14:03.783Z,101262.34
2023-05-19T02:19:06.005Z,101260.59
2023-05-19T02:24:08.163Z,101263.19
2023-05-19T02:29:08.831Z,101261.44
2023-05-19T02:34:10.958Z,101265.81
2023-05-19T02:39:12.195Z,101262.34
2023-05-19T02:44:12.805Z,101264.94
2023-05-19T02:49:14.858Z,101260.59
2023-05-19T02:54:15.502Z,101257.13
2023-05-19T02:59:16.126Z,101251.91
2023-05-19T03:04:20.066Z,101250.19
2023-05-19T03:09:20.963Z,101251.06
2023-05-19T03:14:23.884Z,101243.25
2023-05-19T03:19:26.415Z,101231.97
2023-05-19T03:24:27.168Z,101243.25
2023-05-19T03:29:27.786Z,101255.38
2023-05-19T03:34:29.755Z,101251.00
2023-05-19T03:39:32.166Z,101252.75
2023-05-19T03:44:32.849Z,101248.41
2023-05-19T03:49:35.835Z,101261.41
2023-05-19T03:54:59.292Z,101266.63
2023-05-19T03:59:59.987Z,101265.78
2023-05-19T04:05:04.690Z,101258.84
2023-05-19T04:10:07.109Z,101261.44
2023-05-19T04:15:11.369Z,101266.63
2023-05-19T04:20:14.244Z,101270.91
2023-05-19T04:25:15.041Z,101270.94
2023-05-19T04:30:22.096Z,101262.28
2023-05-19T04:35:24.255Z,101258.81
2023-05-19T04:40:25.085Z,101271.81
2023-05-19T04:45:26.847Z,101276.13
2023-05-19T04:50:32.762Z,101253.53
2023-05-19T04:55:34.738Z,101255.19
2023-05-19T05:00:36.600Z,101256.91
2023-05-19T05:05:42.221Z,101257.72
2023-05-19T05:10:43.557Z,101254.31
2023-05-19T05:15:44.783Z,101259.41
2023-05-19T05:20:48.250Z,101257.59
2023-05-19T05:25:49.944Z,101252.06
2023-05-19T05:30:51.017Z,101253.69
2023-05-19T05:35:53.553Z,101248.97
2023-05-19T05:40:54.365Z,101251.53
2023-05-19T05:45:55.202Z,101259.91
2023-05-19T05:50:58.173Z,101257.13
2023-05-19T05:56:03.338Z,101260.53
2023-05-19T06:01:12.954Z,101268.13
2023-05-19T06:06:15.635Z,101263.91
2023-05-19T06:11:16.358Z,101268.31
2023-05-19T06:16:17.458Z,101261.66
2023-05-19T06:21:22.766Z,101259.66
2023-05-19T06:26:23.565Z,101261.75
2023-05-19T06:31:26.508Z,101253.31
2023-05-19T06:36:31.392Z,101258.34
2023-05-19T06:41:32.710Z,101245.59
2023-05-19T06:46:33.558Z,101242.28
2023-05-19T06:51:35.882Z,101237.66
2023-05-19T06:56:36.516Z,101232.03
2023-05-19T07:01:37.264Z,101241.47
2023-05-19T07:06:39.589Z,101237.69
2023-05-19T07:11:40.332Z,101232.00
2023-05-19T07:16:42.758Z,101230.00
2023-05-19T07:21:44.771Z,101232.81
2023-05-19T07:26:45.492Z,101235.00
2023-05-19T07:31:46.187Z,101233.72
2023-05-19T07:36:48.205Z,101234.00
2023-05-19T07:41:52.706Z,101227.56
2023-05-19T07:46:53.475Z,101233.34
2023-05-19T07:51:55.578Z,101221.63
2023-05-19T07:56:56.211Z,101218.53
2023-05-19T08:01:56.911Z,101200.28
2023-05-19T08:06:59.028Z,101198.19
2023-05-19T08:12:01.453Z,101211.34
2023-05-19T08:17:02.188Z,101208.28
2023-05-19T08:22:04.330Z,101201.88
2023-05-19T08:27:05.554Z,101208.66
2023-05-19T08:32:06.716Z,101206.78
2023-05-19T08:37:08.873Z,101200.53
2023-05-19T08:42:10.081Z,101189.56
2023-05-19T08:47:14.050Z,101187.53
2023-05-19T08:52:28.735Z,101186.19
2023-05-19T08:57:30.073Z,101188.97
2023-05-19T09:02:31.685Z,101188.72
2023-05-19T09:07:35.006Z,101184.13
2023-05-19T09:12:35.864Z,101184.06
2023-05-19T09:17:36.930Z,101171.75
2023-05-19T09:22:45.197Z,101170.66
2023-05-19T09:27:47.451Z,101166.88
2023-05-19T09:32:48.232Z,101167.66
2023-05-19T09:37:50.289Z,101168.53
2023-05-19T09:42:51.350Z,101160.06
2023-05-19T09:47:52.215Z,101155.31
2023-05-19T09:52:54.485Z,101148.72
2023-05-19T09:57:56.350Z,101143.00
2023-05-19T10:02:58.244Z,101129.41
2023-05-19T10:08:00.451Z,101132.81
2023-05-19T10:13:02.176Z,101125.66
2023-05-19T10:18:04.320Z,101130.41
2023-05-19T10:23:06.633Z,101127.50
2023-05-19T10:28:12.404Z,101109.16
2023-05-19T10:33:17.522Z,101113.78
2023-05-19T10:38:29.048Z,101111.81
2023-05-19T10:43:44.844Z,101111.28
2023-05-19T10:48:47.080Z,101106.91
2023-05-19T10:53:50.183Z,101125.28
2023-05-19T10:58:52.133Z,101102.41
2023-05-19T11:03:54.094Z,101104.41
2023-05-19T11:08:58.574Z,101107.72
2023-05-19T11:14:01.473Z,101116.34
2023-05-19T11:19:02.247Z,101112.13
2023-05-19T11:24:08.711Z,101105.44
2023-05-19T11:29:10.181Z,101094.69
2023-05-19T11:34:11.299Z,101093.97
2023-05-19T11:39:13.512Z,101104.50
2023-05-19T11:44:14.163Z,101095.94
2023-05-19T11:49:18.418Z,101077.41
2023-05-19T11:54:20.510Z,101088.63
2023-05-19T11:59:31.759Z,101087.22
2023-05-19T12:04:34.135Z,101087.41
2023-05-19T12:09:36.956Z,101097.47
2023-05-19T12:14:38.644Z,101106.00
2023-05-19T12:19:39.432Z,101088.06
2023-05-19T12:24:42.693Z,101096.53
2023-05-19T12:29:43.437Z,101085.47
2023-05-19T12:34:44.168Z,101071.06
2023-05-19T12:39:46.598Z,101069.13
2023-05-19T12:44:50.104Z,101083.22
2023-05-19T12:49:57.257Z,101081.53
2023-05-19T12:55:05.105Z,101080.13
2023-05-19T13:00:10.591Z,101069.53
2023-05-19T13:05:11.273Z,101067.88
2023-05-19T13:10:13.353Z,101068.41
2023-05-19T13:15:14.198Z,101059.28
2023-05-19T13:20:15.071Z,101067.66
2023-05-19T13:25:17.534Z,101067.13
2023-05-19T13:30:18.719Z,101059.84
2023-05-19T13:35:19.468Z,101065.94
2023-05-19T13:40:23.012Z,101063.47
2023-05-19T13:45:23.692Z,101062.09
2023-05-19T13:50:24.346Z,101066.75
2023-05-19T13:55:27.402Z,101065.91
2023-05-19T14:00:28.472Z,101064.78
2023-05-19T14:05:30.954Z,101053.50
2023-05-19T14:10:33.398Z,101057.91
2023-05-19T14:15:37.818Z,101063.25
2023-05-19T14:20:38.797Z,101065.47
2023-05-19T14:25:40.983Z,101069.22
2023-05-19T14:30:41.620Z,101062.31
2023-05-19T14:35:42.281Z,101057.38
2023-05-19T14:40:45.038Z,101055.53
2023-05-19T14:45:45.815Z,101057.84
2023-05-19T14:50:48.245Z,101053.19
2023-05-19T14:55:50.285Z,101062.09
2023-05-19T15:00:50.967Z,101062.38
2023-05-19T15:05:51.673Z,101079.72
2023-05-19T15:10:53.612Z,101080.03
2023-05-19T15:16:08.222Z,101087.06
2023-05-19T15:21:15.631Z,101078.94
2023-05-19T15:26:17.863Z,101080.28
2023-05-19T15:31:18.829Z,101088.06
2023-05-19T15:36:19.564Z,101083.16
2023-05-19T15:41:21.817Z,101091.34
2023-05-19T15:46:22.740Z,101089.84
2023-05-19T15:51:23.643Z,101094.03
2023-05-19T15:56:25.981Z,101092.69
2023-05-19T16:01:27.217Z,101090.75
2023-05-19T16:06:28.109Z,101104.16
2023-05-19T16:11:30.070Z,101108.78
2023-05-19T16:16:30.772Z,101119.13
2023-05-19T16:21:31.612Z,101124.53
2023-05-19T16:26:34.387Z,101123.16
2023-05-19T16:31:35.111Z,101116.09
2023-05-19T16:36:36.491Z,101124.69
2023-05-19T16:41:38.535Z,101121.47
2023-05-19T16:46:39.172Z,101137.22
2023-05-19T16:51:39.824Z,101133.16
2023-05-19T16:56:41.784Z,101138.03
2023-05-19T17:01:42.455Z,101124.59
2023-05-19T17:06:43.246Z,101131.06
2023-05-19T17:11:45.202Z,101115.91
2023-05-19T17:16:46.686Z,101125.16
2023-05-19T17:21:47.382Z,101129.91
2023-05-19T17:26:49.300Z,101121.88
2023-05-19T17:31:49.965Z,101128.03
2023-05-19T17:36:50.662Z,101124.81
2023-05-19T17:41:52.688Z,101144.00
2023-05-19T17:46:53.403Z,101149.94
2023-05-19T17:51:54.697Z,101144.00
2023-05-19T17:56:59.492Z,101151.25
2023-05-19T18:02:00.686Z,101155.03
2023-05-19T18:07:02.901Z,101136.00
2023-05-19T18:12:05.599Z,101138.53
2023-05-19T18:17:06.584Z,101136.13
2023-05-19T18:22:07.318Z,101136.50
2023-05-19T18:27:09.285Z,101150.34
2023-05-19T18:32:10.017Z,101145.13
2023-05-19T18:37:10.887Z,101136.41
2023-05-19T18:42:12.955Z,101140.13
2023-05-19T18:47:13.740Z,101143.69
2023-05-19T18:52:14.503Z,101141.34
2023-05-19T18:57:16.541Z,101143.19
2023-05-19T19:02:17.193Z,101154.91
2023-05-19T19:07:17.828Z,101159.47
2023-05-19T19:12:20.507Z,101157.72
2023-05-19T19:17:21.487Z,101159.44
2023-05-19T19:22:22.303Z,101154.56
2023-05-19T19:27:26.170Z,101156.22
2023-05-19T19:32:26.945Z,101153.63
2023-05-19T19:37:27.631Z,101151.94
2023-05-19T19:42:31.755Z,101155.47
2023-05-19T19:47:32.714Z,101169.47
2023-05-19T19:52:33.398Z,101159.22
2023-05-19T19:57:35.678Z,101157.31
2023-05-19T20:02:45.587Z,101158.22
2023-05-19T20:07:56.265Z,101163.66
2023-05-19T20:12:59.300Z,101161.00
2023-05-19T20:18:00.045Z,101166.47
2023-05-19T20:23:00.736Z,101166.53
2023-05-19T20:28:03.017Z,101165.63
2023-05-19T20:33:03.788Z,101162.91
2023-05-19T20:38:04.603Z,101163.03
2023-05-19T20:43:06.615Z,101163.16
2023-05-19T20:48:07.457Z,101164.03
2023-05-19T20:53:08.273Z,101170.09
2023-05-19T20:58:10.461Z,101163.09
2023-05-19T21:03:11.574Z,101159.59
2023-05-19T21:08:12.868Z,101151.00
2023-05-19T21:13:15.163Z,101152.47
2023-05-19T21:18:15.877Z,101163.00
2023-05-19T21:23:16.493Z,101159.56
2023-05-19T21:28:18.488Z,101158.00
2023-05-19T21:33:19.207Z,101162.50
2023-05-19T21:38:23.805Z,101164.34
2023-05-19T21:43:26.278Z,101166.97
2023-05-19T21:48:26.908Z,101166.06
2023-05-19T21:53:27.647Z,101165.50
2023-05-19T21:58:29.774Z,101162.75
2023-05-19T22:03:30.479Z,101153.09
2023-05-19T22:08:31.137Z,101157.47
2023-05-19T22:13:34.006Z,101154.97
2023-05-19T22:18:34.755Z,101161.09
2023-05-19T22:23:35.448Z,101153.16
2023-05-19T22:28:37.472Z,101162.81
2023-05-19T22:33:38.076Z,101159.44
2023-05-19T22:38:38.769Z,101155.88
2023-05-19T22:43:40.776Z,101148.00
2023-05-19T22:48:41.383Z,101155.09
2023-05-19T22:53:42.637Z,101151.63
2023-05-19T22:58:44.586Z,101139.28
2023-05-19T23:03:45.459Z,101125.38
2023-05-19T23:08:46.920Z,101123.53
2023-05-19T23:13:48.910Z,101137.63
2023-05-19T23:18:49.578Z,101142.84
2023-05-19T23:23:50.624Z,101155.91
2023-05-19T23:28:52.555Z,101154.34
2023-05-19T23:33:53.138Z,101144.78
2023-05-19T23:38:53.753Z,101150.94
2023-05-19T23:43:55.767Z,101143.25
2023-05-19T23:48:56.399Z,101148.59
2023-05-19T23:53:57.020Z,101148.66
2023-05-19T23:59:00.764Z,101157.72
